Time;durP1;ratioP1;P1;durP2;ratioP2;P2;SDS_P1;SDS_P2;PMS_P1;PMS_P2;Temp;Humidity;BMP_temperature;BMP_pressure;BME280_temperature;BME280_humidity;BME280_pressure;Samples;Min_cycle;Max_cycle;Signal;HPM_P1;HPM_P2
2020/04/08 00:00:06;;;;;;;11.4;9.699999;;;;;;;7.66;60.17969;96066.35;;;;
2020/04/08 00:02:22;;;;;;;11.4;9.699999;;;;;;;7.66;60.17969;96066.35;;;;
2020/04/08 00:04:45;;;;;;;11.2;9.9;;;;;;;7.58;60.3916;96068.8;;;;
2020/04/08 00:05:57;;;;;;;11.2;9.9;;;;;;;7.58;60.3916;96068.8;;;;
2020/04/08 00:07:16;;;;;;;11.2;9.9;;;;;;;7.58;60.3916;96068.8;;;;
2020/04/08 00:17:43;;;;;;;13.05;10.1;;;;;;;7.37;61.05469;96071.99;;;;
2020/04/08 00:18:58;;;;;;;13.35;10.55;;;;;;;7.31;61.30371;96061.1;;;;
2020/04/08 00:20:15;;;;;;;13.35;10.55;;;;;;;7.31;61.30371;96061.1;;;;
2020/04/08 00:21:40;;;;;;;13.2;10.4;;;;;;;7.26;61.47754;96060.86;;;;
2020/04/08 00:22:53;;;;;;;13.2;10.4;;;;;;;7.26;61.47754;96060.86;;;;
2020/04/08 00:25:01;;;;;;;12.6;10.35;;;;;;;7.21;61.70313;96060.21;;;;
2020/04/08 00:26:51;;;;;;;12.6;11.35;;;;;;;7.16;61.88965;96060.36;;;;
2020/04/08 00:28:09;;;;;;;12.6;11.35;;;;;;;7.16;61.88965;96060.36;;;;
2020/04/08 00:30:14;;;;;;;11.35;10.15;;;;;;;7.12;62.14941;96056.94;;;;
2020/04/08 00:32:03;;;;;;;12.55;10.3;;;;;;;7.08;62.33594;96057.42;;;;
2020/04/08 00:34:40;;;;;;;11.4;10.1;;;;;;;7.05;62.52344;96050.69;;;;
2020/04/08 00:35:52;;;;;;;11.4;10.1;;;;;;;7.05;62.52344;96050.69;;;;
2020/04/08 00:39:26;;;;;;;12.65;9.199999;;;;;;;6.98;62.71484;96047.52;;;;
2020/04/08 00:41:02;;;;;;;12.65;9.199999;;;;;;;6.98;62.71484;96047.52;;;;
2020/04/08 00:42:09;;;;;;;10.45;9.299999;;;;;;;6.94;62.7627;96048.95;;;;
2020/04/08 00:43:36;;;;;;;10.45;9.299999;;;;;;;6.94;62.7627;96048.95;;;;
2020/04/08 00:48:49;;;;;;;12.15;10.1;;;;;;;6.85;63.03613;96038.05;;;;
2020/04/08 00:50:00;;;;;;;11.25;10.15;;;;;;;6.8;63.25293;96037.38;;;;
2020/04/08 00:55:01;;;;;;;11.25;10.15;;;;;;;6.8;63.25293;96037.38;;;;
2020/04/08 00:56:44;;;;;;;11.25;10.15;;;;;;;6.8;63.25293;96037.38;;;;
2020/04/08 00:57:58;;;;;;;11.25;10.15;;;;;;;6.8;63.25293;96037.38;;;;
2020/04/08 01:00:22;;;;;;;10.95;8.5;;;;;;;6.27;61.83594;96036.91;;;;
2020/04/08 01:01:48;;;;;;;10.95;8.5;;;;;;;6.27;61.83594;96036.91;;;;
2020/04/08 01:07:30;;;;;;;12.15;9.55;;;;;;;6.31;62.75586;96042.3;;;;
2020/04/08 01:12:48;;;;;;;10.25;9.15;;;;;;;6.34;63.23828;96035.62;;;;
2020/04/08 01:14:04;;;;;;;10.9;9.299999;;;;;;;6.31;63.52148;96034.25;;;;
2020/04/08 01:15:36;;;;;;;10.9;9.299999;;;;;;;6.31;63.52148;96034.25;;;;
2020/04/08 01:17:57;;;;;;;10.65;8.799999;;;;;;;6.27;63.72852;96028.86;;;;
2020/04/08 01:19:23;;;;;;;10.45;9.35;;;;;;;6.24;64.01172;96033.24;;;;
2020/04/08 01:25:09;;;;;;;13;9.4;;;;;;;6.19;64.38574;96029.47;;;;
2020/04/08 01:26:32;;;;;;;13;9.4;;;;;;;6.19;64.38574;96029.47;;;;
2020/04/08 01:27:41;;;;;;;13;9.4;;;;;;;6.19;64.38574;96029.47;;;;
2020/04/08 01:28:47;;;;;;;13;9.4;;;;;;;6.19;64.38574;96029.47;;;;
2020/04/08 01:30:30;;;;;;;13;9.4;;;;;;;6.19;64.38574;96029.47;;;;
2020/04/08 01:32:07;;;;;;;13;9.4;;;;;;;6.19;64.38574;96029.47;;;;
2020/04/08 01:33:44;;;;;;;13;9.4;;;;;;;6.19;64.38574;96029.47;;;;
2020/04/08 01:34:51;;;;;;;11.7;9.499999;;;;;;;5.73;62.92773;96023.58;;;;
2020/04/08 01:36:50;;;;;;;11.7;9.499999;;;;;;;5.73;62.92773;96023.58;;;;
2020/04/08 01:38:25;;;;;;;10.9;9.75;;;;;;;5.69;63.55762;96021.88;;;;
2020/04/08 01:39:44;;;;;;;10.9;9.75;;;;;;;5.69;63.55762;96021.88;;;;
2020/04/08 01:45:00;;;;;;;10.9;9.75;;;;;;;5.69;63.55762;96021.88;;;;
2020/04/08 01:46:37;;;;;;;10.9;9.75;;;;;;;5.69;63.55762;96021.88;;;;
2020/04/08 01:47:45;;;;;;;10.9;9.75;;;;;;;5.69;63.55762;96021.88;;;;
2020/04/08 01:48:46;;;;;;;11.55;8.949999;;;;;;;5.39;62.60059;96022.94;;;;
2020/04/08 01:50:25;;;;;;;11.55;8.949999;;;;;;;5.39;62.60059;96022.94;;;;
2020/04/08 01:51:54;;;;;;;11.9;10;;;;;;;5.38;63.31152;96021.67;;;;
2020/04/08 01:53:21;;;;;;;11.1;9.849999;;;;;;;5.42;63.9834;96022.55;;;;
2020/04/08 01:54:31;;;;;;;11.1;9.849999;;;;;;;5.42;63.9834;96022.55;;;;
2020/04/08 01:55:39;;;;;;;11.1;9.849999;;;;;;;5.42;63.9834;96022.55;;;;
2020/04/08 01:56:44;;;;;;;11.1;9.849999;;;;;;;5.42;63.9834;96022.55;;;;
2020/04/08 01:58:15;;;;;;;11.1;9.849999;;;;;;;5.42;63.9834;96022.55;;;;
2020/04/08 01:59:25;;;;;;;11.1;9.849999;;;;;;;5.42;63.9834;96022.55;;;;
2020/04/08 02:00:33;;;;;;;11.1;9.849999;;;;;;;5.42;63.9834;96022.55;;;;
2020/04/08 02:02:13;;;;;;;11.1;9.849999;;;;;;;5.42;63.9834;96022.55;;;;
2020/04/08 02:04:52;;;;;;;15.35;9.550001;;;;;;;5.22;62.84082;96023.21;;;;
2020/04/08 02:07:45;;;;;;;15.35;9.550001;;;;;;;5.22;62.84082;96023.21;;;;
2020/04/08 02:09:26;;;;;;;15.35;9.550001;;;;;;;5.22;62.84082;96023.21;;;;
2020/04/08 02:14:45;;;;;;;14.6;9.399999;;;;;;;4.97;62.14844;96019.14;;;;
2020/04/08 02:16:23;;;;;;;14.6;9.399999;;;;;;;4.97;62.14844;96019.14;;;;
2020/04/08 02:18:33;;;;;;;13.15;10.5;;;;;;;4.97;62.86914;96021.31;;;;
2020/04/08 02:19:48;;;;;;;14.2;11.65;;;;;;;5.05;63.6748;96016.82;;;;
2020/04/08 02:20:56;;;;;;;14.2;11.65;;;;;;;5.05;63.6748;96016.82;;;;
2020/04/08 02:22:04;;;;;;;14.2;11.65;;;;;;;5.05;63.6748;96016.82;;;;
2020/04/08 02:23:52;;;;;;;13.8;11.7;;;;;;;5.1;64.39355;96018.42;;;;
2020/04/08 02:28:16;;;;;;;13.8;11.7;;;;;;;5.1;64.39355;96018.42;;;;
2020/04/08 02:29:26;;;;;;;13.8;11.7;;;;;;;5.1;64.39355;96018.42;;;;
2020/04/08 02:30:30;;;;;;;13.8;11.7;;;;;;;5.1;64.39355;96018.42;;;;
2020/04/08 02:32:16;;;;;;;13.8;11.7;;;;;;;5.1;64.39355;96018.42;;;;
2020/04/08 02:33:37;;;;;;;13.7;10.15;;;;;;;4.88;63.19434;96014.47;;;;
2020/04/08 02:34:53;;;;;;;13.7;10.15;;;;;;;4.88;63.19434;96014.47;;;;
2020/04/08 02:35:57;;;;;;;14.8;10.85;;;;;;;4.88;63.87402;96010.38;;;;
2020/04/08 02:37:00;;;;;;;14.8;10.85;;;;;;;4.88;63.87402;96010.38;;;;
2020/04/08 02:38:05;;;;;;;14.8;10.85;;;;;;;4.88;63.87402;96010.38;;;;
2020/04/08 02:39:17;;;;;;;13.4;11.05;;;;;;;4.94;64.47363;96010.16;;;;
2020/04/08 02:44:29;;;;;;;13.7;11.25;;;;;;;4.98;65.08496;96011.88;;;;
2020/04/08 02:45:35;;;;;;;13.7;11.25;;;;;;;4.98;65.08496;96011.88;;;;
2020/04/08 02:46:53;;;;;;;13.7;11.25;;;;;;;4.98;65.08496;96011.88;;;;
2020/04/08 02:48:09;;;;;;;13.7;11.25;;;;;;;4.98;65.08496;96011.88;;;;
2020/04/08 02:49:23;;;;;;;13.7;11.25;;;;;;;4.98;65.08496;96011.88;;;;
2020/04/08 02:50:34;;;;;;;13.7;11.25;;;;;;;4.98;65.08496;96011.88;;;;
2020/04/08 02:51:39;;;;;;;14.05;9.950001;;;;;;;4.7;63.82422;96004.13;;;;
2020/04/08 02:52:47;;;;;;;14.05;9.950001;;;;;;;4.7;63.82422;96004.13;;;;
2020/04/08 02:53:53;;;;;;;14.05;9.950001;;;;;;;4.7;63.82422;96004.13;;;;
2020/04/08 02:54:59;;;;;;;14.05;9.950001;;;;;;;4.7;63.82422;96004.13;;;;
2020/04/08 02:56:20;;;;;;;14.05;9.950001;;;;;;;4.7;63.82422;96004.13;;;;
2020/04/08 02:57:25;;;;;;;14.05;9.950001;;;;;;;4.7;63.82422;96004.13;;;;
2020/04/08 02:58:31;;;;;;;14.05;9.950001;;;;;;;4.7;63.82422;96004.13;;;;
2020/04/08 02:59:40;;;;;;;14.05;9.950001;;;;;;;4.7;63.82422;96004.13;;;;
2020/04/08 03:00:41;;;;;;;14.05;9.950001;;;;;;;4.7;63.82422;96004.13;;;;
2020/04/08 03:02:26;;;;;;;13.05;9.1;;;;;;;4.52;63.19629;96009.39;;;;
2020/04/08 03:03:38;;;;;;;13.05;9.1;;;;;;;4.52;63.19629;96009.39;;;;
2020/04/08 03:05:01;;;;;;;13.05;9.1;;;;;;;4.52;63.19629;96009.39;;;;
2020/04/08 03:06:19;;;;;;;13.05;9.1;;;;;;;4.52;63.19629;96009.39;;;;
2020/04/08 03:07:25;;;;;;;13.05;9.1;;;;;;;4.52;63.19629;96009.39;;;;
2020/04/08 03:08:38;;;;;;;13.05;9.1;;;;;;;4.52;63.19629;96009.39;;;;
2020/04/08 03:09:41;;;;;;;13.05;9.1;;;;;;;4.52;63.19629;96009.39;;;;
2020/04/08 03:10:49;;;;;;;13.05;9.1;;;;;;;4.52;63.19629;96009.39;;;;
2020/04/08 03:12:06;;;;;;;13.05;9.1;;;;;;;4.52;63.19629;96009.39;;;;
2020/04/08 03:14:20;;;;;;;13.1;9.000001;;;;;;;4.31;62.71973;96000.31;;;;
2020/04/08 03:15:31;;;;;;;13.05;10.25;;;;;;;4.33;63.32617;95997.45;;;;
2020/04/08 03:16:42;;;;;;;13.05;10.25;;;;;;;4.33;63.32617;95997.45;;;;
2020/04/08 03:17:53;;;;;;;13.05;10.25;;;;;;;4.33;63.32617;95997.45;;;;
2020/04/08 03:19:41;;;;;;;13.05;10.25;;;;;;;4.33;63.32617;95997.45;;;;
2020/04/08 03:20:44;;;;;;;13.05;10.25;;;;;;;4.33;63.32617;95997.45;;;;
2020/04/08 03:21:45;;;;;;;13.05;10.25;;;;;;;4.33;63.32617;95997.45;;;;
2020/04/08 03:23:04;;;;;;;13.05;10.25;;;;;;;4.33;63.32617;95997.45;;;;
2020/04/08 03:24:13;;;;;;;13.05;10.25;;;;;;;4.33;63.32617;95997.45;;;;
2020/04/08 03:25:58;;;;;;;11.7;8.750001;;;;;;;4.22;62.85449;96004.57;;;;
2020/04/08 03:26:58;;;;;;;11.7;8.750001;;;;;;;4.22;62.85449;96004.57;;;;
2020/04/08 03:28:24;;;;;;;11.7;8.750001;;;;;;;4.22;62.85449;96004.57;;;;
2020/04/08 03:29:27;;;;;;;14.7;10.25;;;;;;;4.23;63.63965;96000.79;;;;
2020/04/08 03:30:35;;;;;;;14.7;10.25;;;;;;;4.23;63.63965;96000.79;;;;
2020/04/08 03:32:24;;;;;;;14.7;10.25;;;;;;;4.23;63.63965;96000.79;;;;
2020/04/08 03:33:27;;;;;;;14.7;10.25;;;;;;;4.23;63.63965;96000.79;;;;
2020/04/08 03:34:40;;;;;;;14.7;10.25;;;;;;;4.23;63.63965;96000.79;;;;
2020/04/08 03:36:14;;;;;;;14.7;10.25;;;;;;;4.23;63.63965;96000.79;;;;
2020/04/08 03:37:30;;;;;;;14.7;10.25;;;;;;;4.23;63.63965;96000.79;;;;
2020/04/08 03:38:39;;;;;;;14.7;10.25;;;;;;;4.23;63.63965;96000.79;;;;
2020/04/08 03:39:41;;;;;;;11.15;9.050001;;;;;;;4.13;63.06348;95998.95;;;;
2020/04/08 03:40:52;;;;;;;11.15;9.050001;;;;;;;4.13;63.06348;95998.95;;;;
2020/04/08 03:42:12;;;;;;;13.05;10.1;;;;;;;4.14;63.81641;96002.36;;;;
2020/04/08 03:43:42;;;;;;;13.05;10.1;;;;;;;4.14;63.81641;96002.36;;;;
2020/04/08 03:44:52;;;;;;;13.05;10.1;;;;;;;4.14;63.81641;96002.36;;;;
2020/04/08 03:46:35;;;;;;;13.05;10.1;;;;;;;4.14;63.81641;96002.36;;;;
2020/04/08 03:53:22;;;;;;;12.45;9.1;;;;;;;3.96;63.23828;95985.8;;;;
2020/04/08 03:55:39;;;;;;;12.45;9.1;;;;;;;3.96;63.23828;95985.8;;;;
2020/04/08 03:57:36;;;;;;;13.3;9.500001;;;;;;;3.96;64.05371;95989.31;;;;
2020/04/08 04:03:02;;;;;;;13.3;9.500001;;;;;;;3.96;64.05371;95989.31;;;;
2020/04/08 04:04:14;;;;;;;13.3;9.500001;;;;;;;3.96;64.05371;95989.31;;;;
2020/04/08 04:05:18;;;;;;;13.3;9.500001;;;;;;;3.96;64.05371;95989.31;;;;
2020/04/08 04:06:35;;;;;;;12.8;8.450001;;;;;;;3.81;63.5752;95983.17;;;;
2020/04/08 04:07:39;;;;;;;12.8;8.450001;;;;;;;3.81;63.5752;95983.17;;;;
2020/04/08 04:08:48;;;;;;;13.1;9.800001;;;;;;;3.82;64.37109;95979.39;;;;
2020/04/08 04:09:51;;;;;;;13.1;9.800001;;;;;;;3.82;64.37109;95979.39;;;;
2020/04/08 04:11:00;;;;;;;13.1;9.800001;;;;;;;3.82;64.37109;95979.39;;;;
2020/04/08 04:12:07;;;;;;;13.1;9.800001;;;;;;;3.82;64.37109;95979.39;;;;
2020/04/08 04:13:10;;;;;;;13.1;9.800001;;;;;;;3.82;64.37109;95979.39;;;;
2020/04/08 04:14:18;;;;;;;13.1;9.800001;;;;;;;3.82;64.37109;95979.39;;;;
2020/04/08 04:15:18;;;;;;;13.1;9.800001;;;;;;;3.82;64.37109;95979.39;;;;
2020/04/08 04:16:31;;;;;;;13.1;9.800001;;;;;;;3.82;64.37109;95979.39;;;;
2020/04/08 04:17:35;;;;;;;13.1;9.800001;;;;;;;3.82;64.37109;95979.39;;;;
2020/04/08 04:19:00;;;;;;;12.4;8.950001;;;;;;;3.69;63.86523;95980.06;;;;
2020/04/08 04:20:33;;;;;;;12.4;8.950001;;;;;;;3.69;63.86523;95980.06;;;;
2020/04/08 04:21:52;;;;;;;12.4;8.950001;;;;;;;3.69;63.86523;95980.06;;;;
2020/04/08 04:22:57;;;;;;;12.4;8.950001;;;;;;;3.69;63.86523;95980.06;;;;
2020/04/08 04:23:58;;;;;;;12.4;8.950001;;;;;;;3.69;63.86523;95980.06;;;;
2020/04/08 04:25:06;;;;;;;12.4;8.950001;;;;;;;3.69;63.86523;95980.06;;;;
2020/04/08 04:26:07;;;;;;;12.4;8.950001;;;;;;;3.69;63.86523;95980.06;;;;
2020/04/08 04:27:17;;;;;;;12.4;8.950001;;;;;;;3.69;63.86523;95980.06;;;;
2020/04/08 04:28:28;;;;;;;12.4;8.950001;;;;;;;3.69;63.86523;95980.06;;;;
2020/04/08 04:29:30;;;;;;;12.35;9.249999;;;;;;;3.58;63.44727;95992.08;;;;
2020/04/08 04:30:30;;;;;;;12.35;9.249999;;;;;;;3.58;63.44727;95992.08;;;;
2020/04/08 04:31:36;;;;;;;12.35;9.249999;;;;;;;3.58;63.44727;95992.08;;;;
2020/04/08 04:32:36;;;;;;;12.35;9.249999;;;;;;;3.58;63.44727;95992.08;;;;
2020/04/08 04:33:45;;;;;;;12.35;9.249999;;;;;;;3.58;63.44727;95992.08;;;;
2020/04/08 04:34:48;;;;;;;12.35;9.249999;;;;;;;3.58;63.44727;95992.08;;;;
2020/04/08 04:35:52;;;;;;;12.35;9.249999;;;;;;;3.58;63.44727;95992.08;;;;
2020/04/08 04:36:56;;;;;;;12.35;9.249999;;;;;;;3.58;63.44727;95992.08;;;;
2020/04/08 04:37:57;;;;;;;12.35;9.249999;;;;;;;3.58;63.44727;95992.08;;;;
2020/04/08 04:39:13;;;;;;;12.35;9.249999;;;;;;;3.58;63.44727;95992.08;;;;
2020/04/08 04:40:32;;;;;;;12.9;9.349999;;;;;;;3.44;63.21484;95994.13;;;;
2020/04/08 04:41:40;;;;;;;12.9;9.349999;;;;;;;3.44;63.21484;95994.13;;;;
2020/04/08 04:42:41;;;;;;;13.2;10.3;;;;;;;3.47;64.0127;95986.22;;;;
2020/04/08 04:43:42;;;;;;;13.2;10.3;;;;;;;3.47;64.0127;95986.22;;;;
2020/04/08 04:44:46;;;;;;;13.2;10.3;;;;;;;3.47;64.0127;95986.22;;;;
2020/04/08 04:46:07;;;;;;;13.2;10.3;;;;;;;3.47;64.0127;95986.22;;;;
2020/04/08 04:47:23;;;;;;;13.2;10.3;;;;;;;3.47;64.0127;95986.22;;;;
2020/04/08 04:48:30;;;;;;;13.2;10.3;;;;;;;3.47;64.0127;95986.22;;;;
2020/04/08 04:49:31;;;;;;;13.2;10.3;;;;;;;3.47;64.0127;95986.22;;;;
2020/04/08 04:50:40;;;;;;;13.2;10.3;;;;;;;3.47;64.0127;95986.22;;;;
2020/04/08 04:51:41;;;;;;;13.2;10.3;;;;;;;3.47;64.0127;95986.22;;;;
2020/04/08 04:52:43;;;;;;;13.2;10.3;;;;;;;3.47;64.0127;95986.22;;;;
2020/04/08 04:53:45;;;;;;;13.2;10.3;;;;;;;3.47;64.0127;95986.22;;;;
2020/04/08 04:54:48;;;;;;;13.2;10.3;;;;;;;3.47;64.0127;95986.22;;;;
2020/04/08 04:55:52;;;;;;;13.2;10.3;;;;;;;3.47;64.0127;95986.22;;;;
2020/04/08 04:56:54;;;;;;;15.8;10.9;;;;;;;3.58;64.24023;95989.31;;;;
2020/04/08 04:57:56;;;;;;;15.8;10.9;;;;;;;3.58;64.24023;95989.31;;;;
2020/04/08 04:59:09;;;;;;;15.8;10.9;;;;;;;3.58;64.24023;95989.31;;;;
2020/04/08 05:00:10;;;;;;;15.8;10.9;;;;;;;3.58;64.24023;95989.31;;;;
2020/04/08 05:01:27;;;;;;;15.8;10.9;;;;;;;3.58;64.24023;95989.31;;;;
2020/04/08 05:02:40;;;;;;;15.8;10.9;;;;;;;3.58;64.24023;95989.31;;;;
2020/04/08 05:03:41;;;;;;;15.8;10.9;;;;;;;3.58;64.24023;95989.31;;;;
2020/04/08 05:04:41;;;;;;;15.8;10.9;;;;;;;3.58;64.24023;95989.31;;;;
2020/04/08 05:05:44;;;;;;;15.8;10.9;;;;;;;3.58;64.24023;95989.31;;;;
2020/04/08 05:06:46;;;;;;;16.5;10.1;;;;;;;3.59;63.6084;96001.67;;;;
2020/04/08 05:07:47;;;;;;;16.5;10.1;;;;;;;3.59;63.6084;96001.67;;;;
2020/04/08 05:08:47;;;;;;;16.5;10.1;;;;;;;3.59;63.6084;96001.67;;;;
2020/04/08 05:09:48;;;;;;;12.8;10.4;;;;;;;3.64;64.37598;96003.3;;;;
2020/04/08 05:11:52;;;;;;;12.8;10.4;;;;;;;3.64;64.37598;96003.3;;;;
2020/04/08 05:12:53;;;;;;;12.8;10.4;;;;;;;3.64;64.37598;96003.3;;;;
2020/04/08 05:13:53;;;;;;;12.8;10.4;;;;;;;3.64;64.37598;96003.3;;;;
2020/04/08 05:14:54;;;;;;;12.8;10.4;;;;;;;3.64;64.37598;96003.3;;;;
2020/04/08 05:15:55;;;;;;;12.8;10.4;;;;;;;3.64;64.37598;96003.3;;;;
2020/04/08 05:16:55;;;;;;;12.8;10.4;;;;;;;3.64;64.37598;96003.3;;;;
2020/04/08 05:17:56;;;;;;;12.8;10.4;;;;;;;3.64;64.37598;96003.3;;;;
2020/04/08 05:18:58;;;;;;;12.8;10.4;;;;;;;3.64;64.37598;96003.3;;;;
2020/04/08 05:19:58;;;;;;;16.7;9.9;;;;;;;3.72;63.87109;96006.84;;;;
2020/04/08 05:20:59;;;;;;;16.7;9.9;;;;;;;3.72;63.87109;96006.84;;;;
2020/04/08 05:21:59;;;;;;;16.7;9.9;;;;;;;3.72;63.87109;96006.84;;;;
2020/04/08 05:22:59;;;;;;;14.5;11;;;;;;;3.81;64.67578;96012.05;;;;
2020/04/08 05:24:00;;;;;;;14.5;11;;;;;;;3.81;64.67578;96012.05;;;;
2020/04/08 05:25:01;;;;;;;14.5;11;;;;;;;3.81;64.67578;96012.05;;;;
2020/04/08 05:26:03;;;;;;;14.5;11;;;;;;;3.81;64.67578;96012.05;;;;
2020/04/08 05:27:03;;;;;;;14.5;11;;;;;;;3.81;64.67578;96012.05;;;;
2020/04/08 05:28:04;;;;;;;14.5;11;;;;;;;3.81;64.67578;96012.05;;;;
2020/04/08 05:29:06;;;;;;;14.5;11;;;;;;;3.81;64.67578;96012.05;;;;
2020/04/08 05:30:07;;;;;;;14.5;11;;;;;;;3.81;64.67578;96012.05;;;;
2020/04/08 05:31:23;;;;;;;14.5;11;;;;;;;3.81;64.67578;96012.05;;;;
2020/04/08 05:32:23;;;;;;;14.5;11;;;;;;;3.81;64.67578;96012.05;;;;
2020/04/08 05:33:24;;;;;;;13.95;10.2;;;;;;;4.02;64.06348;96011.31;;;;
2020/04/08 05:34:24;;;;;;;13.95;10.2;;;;;;;4.02;64.06348;96011.31;;;;
2020/04/08 05:35:26;;;;;;;13.95;10.2;;;;;;;4.02;64.06348;96011.31;;;;
2020/04/08 05:36:26;;;;;;;12.4;10.75;;;;;;;4.15;64.89551;96008.47;;;;
2020/04/08 05:37:27;;;;;;;12.4;10.75;;;;;;;4.15;64.89551;96008.47;;;;
2020/04/08 05:38:29;;;;;;;12.4;10.75;;;;;;;4.15;64.89551;96008.47;;;;
2020/04/08 05:39:33;;;;;;;12.4;10.75;;;;;;;4.15;64.89551;96008.47;;;;
2020/04/08 05:40:42;;;;;;;12.4;10.75;;;;;;;4.15;64.89551;96008.47;;;;
2020/04/08 05:41:44;;;;;;;12.4;10.75;;;;;;;4.15;64.89551;96008.47;;;;
2020/04/08 05:42:45;;;;;;;12.4;10.75;;;;;;;4.15;64.89551;96008.47;;;;
2020/04/08 05:43:45;;;;;;;12.4;10.75;;;;;;;4.15;64.89551;96008.47;;;;
2020/04/08 05:44:46;;;;;;;12.4;10.75;;;;;;;4.15;64.89551;96008.47;;;;
2020/04/08 05:45:51;;;;;;;12.4;10.75;;;;;;;4.15;64.89551;96008.47;;;;
2020/04/08 05:46:52;;;;;;;15.05;10.55;;;;;;;4.59;64.03125;96005.89;;;;
2020/04/08 05:47:54;;;;;;;15.05;10.55;;;;;;;4.59;64.03125;96005.89;;;;
2020/04/08 05:48:56;;;;;;;15.05;10.55;;;;;;;4.59;64.03125;96005.89;;;;
2020/04/08 05:49:56;;;;;;;14.5;11.4;;;;;;;4.78;64.8418;96013;;;;
2020/04/08 05:50:56;;;;;;;14.5;11.4;;;;;;;4.78;64.8418;96013;;;;
2020/04/08 05:51:57;;;;;;;14.5;11.4;;;;;;;4.78;64.8418;96013;;;;
2020/04/08 05:52:57;;;;;;;14.5;11.4;;;;;;;4.78;64.8418;96013;;;;
2020/04/08 05:53:58;;;;;;;14.5;11.4;;;;;;;4.78;64.8418;96013;;;;
2020/04/08 05:54:59;;;;;;;14.5;11.4;;;;;;;4.78;64.8418;96013;;;;
2020/04/08 05:55:59;;;;;;;14.5;11.4;;;;;;;4.78;64.8418;96013;;;;
2020/04/08 05:57:00;;;;;;;14.5;11.4;;;;;;;4.78;64.8418;96013;;;;
2020/04/08 05:58:01;;;;;;;14.5;11.4;;;;;;;4.78;64.8418;96013;;;;
2020/04/08 05:59:02;;;;;;;14.5;11.4;;;;;;;4.78;64.8418;96013;;;;
2020/04/08 06:00:03;;;;;;;12.15;10.1;;;;;;;5.33;63.80176;96006.27;;;;
2020/04/08 06:01:12;;;;;;;12.15;10.1;;;;;;;5.33;63.80176;96006.27;;;;
2020/04/08 06:02:37;;;;;;;11.9;10.7;;;;;;;5.54;64.59766;96002.72;;;;
2020/04/08 06:03:37;;;;;;;11.9;10.7;;;;;;;5.54;64.59766;96002.72;;;;
2020/04/08 06:04:37;;;;;;;11.9;10.7;;;;;;;5.54;64.59766;96002.72;;;;
2020/04/08 06:05:40;;;;;;;11.9;10.7;;;;;;;5.54;64.59766;96002.72;;;;
2020/04/08 06:06:45;;;;;;;11.9;10.7;;;;;;;5.54;64.59766;96002.72;;;;
2020/04/08 06:07:49;;;;;;;11.9;10.7;;;;;;;5.54;64.59766;96002.72;;;;
2020/04/08 06:08:55;;;;;;;11.9;10.7;;;;;;;5.54;64.59766;96002.72;;;;
2020/04/08 06:09:56;;;;;;;11.9;10.7;;;;;;;5.54;64.59766;96002.72;;;;
2020/04/08 06:11:00;;;;;;;11.9;10.7;;;;;;;5.54;64.59766;96002.72;;;;
2020/04/08 06:12:13;;;;;;;11.9;10.7;;;;;;;5.54;64.59766;96002.72;;;;
2020/04/08 06:18:34;;;;;;;14.95;11.6;;;;;;;6.48;64.28027;96006.55;;;;
2020/04/08 06:19:35;;;;;;;14.95;11.6;;;;;;;6.48;64.28027;96006.55;;;;
2020/04/08 06:20:50;;;;;;;14.95;11.6;;;;;;;6.48;64.28027;96006.55;;;;
2020/04/08 06:21:52;;;;;;;14.95;11.6;;;;;;;6.48;64.28027;96006.55;;;;
2020/04/08 06:22:53;;;;;;;14.95;11.6;;;;;;;6.48;64.28027;96006.55;;;;
2020/04/08 06:23:54;;;;;;;14.95;11.6;;;;;;;6.48;64.28027;96006.55;;;;
2020/04/08 06:24:56;;;;;;;14.95;11.6;;;;;;;6.48;64.28027;96006.55;;;;
2020/04/08 06:25:57;;;;;;;14.95;11.6;;;;;;;6.48;64.28027;96006.55;;;;
2020/04/08 06:26:58;;;;;;;12;10.75;;;;;;;7.35;63.11035;96000.59;;;;
2020/04/08 06:27:58;;;;;;;12;10.75;;;;;;;7.35;63.11035;96000.59;;;;
2020/04/08 06:29:05;;;;;;;12;10.8;;;;;;;7.75;63.81738;96007.48;;;;
2020/04/08 06:30:05;;;;;;;12;10.8;;;;;;;7.75;63.81738;96007.48;;;;
2020/04/08 06:31:10;;;;;;;12;10.8;;;;;;;7.75;63.81738;96007.48;;;;
2020/04/08 06:32:14;;;;;;;11.75;9.949999;;;;;;;8.26;63.75488;96003.74;;;;
2020/04/08 06:33:14;;;;;;;11.75;9.949999;;;;;;;8.26;63.75488;96003.74;;;;
2020/04/08 06:34:15;;;;;;;12;9.799999;;;;;;;8.81;63.26953;96002.01;;;;
2020/04/08 06:35:22;;;;;;;12;9.799999;;;;;;;8.81;63.26953;96002.01;;;;
2020/04/08 06:36:27;;;;;;;12;9.799999;;;;;;;8.81;63.26953;96002.01;;;;
2020/04/08 06:37:31;;;;;;;11.05;9.700001;;;;;;;9.38;62.5918;96000;;;;
2020/04/08 06:38:31;;;;;;;11.05;9.700001;;;;;;;9.38;62.5918;96000;;;;
2020/04/08 06:39:32;;;;;;;11.9;10.15;;;;;;;9.95;61.70801;95995.54;;;;
2020/04/08 06:41:20;;;;;;;11.9;10.15;;;;;;;9.95;61.70801;95995.54;;;;
2020/04/08 06:42:21;;;;;;;11.2;9.150002;;;;;;;10.5;60.74512;95997.53;;;;
2020/04/08 06:43:21;;;;;;;11.2;9.150002;;;;;;;10.5;60.74512;95997.53;;;;
2020/04/08 06:44:22;;;;;;;11.2;9.150002;;;;;;;10.5;60.74512;95997.53;;;;
2020/04/08 06:45:23;;;;;;;10.8;9.700001;;;;;;;11.02;59.81738;96002.15;;;;
2020/04/08 06:46:33;;;;;;;10.8;9.700001;;;;;;;11.02;59.81738;96002.15;;;;
2020/04/08 06:47:33;;;;;;;10.65;9.550001;;;;;;;11.55;58.80176;96007.06;;;;
2020/04/08 06:48:34;;;;;;;10.65;9.550001;;;;;;;11.55;58.80176;96007.06;;;;
2020/04/08 06:49:36;;;;;;;10.65;9.550001;;;;;;;11.55;58.80176;96007.06;;;;
2020/04/08 06:50:39;;;;;;;10.1;9;;;;;;;12.04;57.85254;96005.14;;;;
2020/04/08 06:51:41;;;;;;;10.1;9;;;;;;;12.04;57.85254;96005.14;;;;
2020/04/08 06:52:41;;;;;;;9.949999;8.749999;;;;;;;12.53;56.78418;96014.81;;;;
2020/04/08 06:53:42;;;;;;;9.949999;8.749999;;;;;;;12.53;56.78418;96014.81;;;;
2020/04/08 06:54:42;;;;;;;9.949999;8.749999;;;;;;;12.53;56.78418;96014.81;;;;
2020/04/08 06:55:43;;;;;;;11.7;9.400002;;;;;;;13;55.83789;96007.21;;;;
2020/04/08 06:56:43;;;;;;;11.7;9.400002;;;;;;;13;55.83789;96007.21;;;;
2020/04/08 06:57:44;;;;;;;11.7;9.400002;;;;;;;13;55.83789;96007.21;;;;
2020/04/08 06:58:44;;;;;;;9.65;8.750001;;;;;;;13.46;54.88965;96007.28;;;;
2020/04/08 06:59:45;;;;;;;9.65;8.750001;;;;;;;13.46;54.88965;96007.28;;;;
2020/04/08 07:00:45;;;;;;;10.2;9;;;;;;;13.87;53.91113;96005.77;;;;
2020/04/08 07:01:50;;;;;;;10.2;9;;;;;;;13.87;53.91113;96005.77;;;;
2020/04/08 07:02:51;;;;;;;10.2;9;;;;;;;13.87;53.91113;96005.77;;;;
2020/04/08 07:03:52;;;;;;;10.85;9.099999;;;;;;;14.27;53.10156;96007.19;;;;
2020/04/08 07:04:52;;;;;;;10.85;9.099999;;;;;;;14.27;53.10156;96007.19;;;;
2020/04/08 07:05:53;;;;;;;11.9;9.200002;;;;;;;14.6;52.25098;95995.49;;;;
2020/04/08 07:06:54;;;;;;;11.9;9.200002;;;;;;;14.6;52.25098;95995.49;;;;
2020/04/08 07:07:54;;;;;;;11.9;9.200002;;;;;;;14.6;52.25098;95995.49;;;;
2020/04/08 07:08:55;;;;;;;9.4;8.4;;;;;;;14.91;51.59082;96000.95;;;;
2020/04/08 07:09:55;;;;;;;9.4;8.4;;;;;;;14.91;51.59082;96000.95;;;;
2020/04/08 07:10:56;;;;;;;9.4;8.4;;;;;;;14.91;51.59082;96000.95;;;;
2020/04/08 07:11:57;;;;;;;10.05;9.000001;;;;;;;15.2;50.83008;96008.37;;;;
2020/04/08 07:12:57;;;;;;;10.05;9.000001;;;;;;;15.2;50.83008;96008.37;;;;
2020/04/08 07:13:59;;;;;;;12.3;9.35;;;;;;;15.48;50.08887;96007.92;;;;
2020/04/08 07:14:59;;;;;;;12.3;9.35;;;;;;;15.48;50.08887;96007.92;;;;
2020/04/08 07:16:00;;;;;;;12.3;9.35;;;;;;;15.48;50.08887;96007.92;;;;
2020/04/08 07:17:00;;;;;;;12.05;8.950002;;;;;;;15.74;49.49609;96002.71;;;;
2020/04/08 07:18:01;;;;;;;12.05;8.950002;;;;;;;15.74;49.49609;96002.71;;;;
2020/04/08 07:19:06;;;;;;;12.05;8.950002;;;;;;;15.74;49.49609;96002.71;;;;
2020/04/08 07:20:06;;;;;;;12.05;8.950002;;;;;;;15.74;49.49609;96002.71;;;;
2020/04/08 07:21:07;;;;;;;12.05;8.950002;;;;;;;15.74;49.49609;96002.71;;;;
2020/04/08 07:22:07;;;;;;;12.05;8.950002;;;;;;;15.74;49.49609;96002.71;;;;
2020/04/08 07:23:08;;;;;;;12.05;8.950002;;;;;;;15.74;49.49609;96002.71;;;;
2020/04/08 07:24:10;;;;;;;12.05;8.950002;;;;;;;15.74;49.49609;96002.71;;;;
2020/04/08 07:25:17;;;;;;;12.05;8.950002;;;;;;;15.74;49.49609;96002.71;;;;
2020/04/08 07:26:21;;;;;;;12.05;8.950002;;;;;;;15.74;49.49609;96002.71;;;;
2020/04/08 07:27:22;;;;;;;10.4;9.200001;;;;;;;16.26;49.77246;96008.62;;;;
2020/04/08 07:28:22;;;;;;;10.4;9.200001;;;;;;;16.26;49.77246;96008.62;;;;
2020/04/08 07:29:26;;;;;;;10.4;9.200001;;;;;;;16.26;49.77246;96008.62;;;;
2020/04/08 07:30:27;;;;;;;11.6;9.150002;;;;;;;16.43;48.99512;96007.47;;;;
2020/04/08 07:31:33;;;;;;;11.6;9.150002;;;;;;;16.43;48.99512;96007.47;;;;
2020/04/08 07:32:33;;;;;;;10.3;9.1;;;;;;;16.66;48.17871;96019.48;;;;
2020/04/08 07:33:34;;;;;;;10.3;9.1;;;;;;;16.66;48.17871;96019.48;;;;
2020/04/08 07:34:34;;;;;;;10.3;9.1;;;;;;;16.66;48.17871;96019.48;;;;
2020/04/08 07:35:35;;;;;;;10.15;9.150002;;;;;;;16.85;47.47754;96019.03;;;;
2020/04/08 07:36:35;;;;;;;10.15;9.150002;;;;;;;16.85;47.47754;96019.03;;;;
2020/04/08 07:37:36;;;;;;;9.75;8.75;;;;;;;17.06;47.06152;96023.72;;;;
2020/04/08 07:38:36;;;;;;;9.75;8.75;;;;;;;17.06;47.06152;96023.72;;;;
2020/04/08 07:39:37;;;;;;;9.75;8.75;;;;;;;17.06;47.06152;96023.72;;;;
2020/04/08 07:40:38;;;;;;;10.15;9.05;;;;;;;17.24;46.36816;96027.85;;;;
2020/04/08 07:41:41;;;;;;;10.15;9.05;;;;;;;17.24;46.36816;96027.85;;;;
2020/04/08 07:42:41;;;;;;;10.15;9.05;;;;;;;17.24;46.36816;96027.85;;;;
2020/04/08 07:43:42;;;;;;;11.35;9.15;;;;;;;17.48;46.11914;96024.69;;;;
2020/04/08 07:44:42;;;;;;;11.35;9.15;;;;;;;17.48;46.11914;96024.69;;;;
2020/04/08 07:45:43;;;;;;;10.65;9.35;;;;;;;17.83;45.77246;96029.04;;;;